createdAt,value
2023-02-11T00:00:40.710Z,21.1
2023-02-11T00:04:40.521Z,22.07
2023-02-11T00:08:39.442Z,22.67
2023-02-11T00:12:40.865Z,20.7
2023-02-11T00:16:40.413Z,15.27
2023-02-11T00:20:40.446Z,21.5
2023-02-11T00:24:40.551Z,19.43
2023-02-11T00:28:41.223Z,24.57
2023-02-11T00:32:40.583Z,24.53
2023-02-11T00:36:40.101Z,24.6
2023-02-11T00:40:40.617Z,21.2
2023-02-11T00:44:39.509Z,21.77
2023-02-11T00:48:40.448Z,24.4
2023-02-11T00:52:40.519Z,22.47
2023-02-11T00:56:41.153Z,21.53
2023-02-11T01:00:40.479Z,22.03
2023-02-11T01:04:41.162Z,21.9
2023-02-11T01:08:40.511Z,19.97
2023-02-11T01:12:40.752Z,22.67
2023-02-11T01:16:40.633Z,23.93
2023-02-11T01:20:40.657Z,23
2023-02-11T01:24:40.491Z,22.4
2023-02-11T01:28:40.594Z,19
2023-02-11T01:32:40.394Z,21.77
2023-02-11T01:36:40.172Z,21.77
2023-02-11T01:40:41.267Z,21.47
2023-02-11T01:44:40.568Z,22.23
2023-02-11T01:48:39.618Z,17.77
2023-02-11T01:52:40.583Z,18.5
2023-02-11T01:56:40.537Z,17.23
2023-02-11T02:00:40.689Z,21.47
2023-02-11T02:04:39.509Z,20.73
2023-02-11T02:08:40.485Z,20.7
2023-02-11T02:12:40.573Z,20.27
2023-02-11T02:16:40.476Z,15
2023-02-11T02:20:40.960Z,21.87
2023-02-11T02:24:40.127Z,16.4
2023-02-11T02:28:41.015Z,20.8
2023-02-11T02:32:40.561Z,15.23
2023-02-11T02:36:40.121Z,16.57
2023-02-11T02:40:41.148Z,17.17
2023-02-11T02:44:40.532Z,18.93
2023-02-11T02:48:40.580Z,18.67
2023-02-11T02:52:40.462Z,18.97
2023-02-11T02:56:40.167Z,17.83
2023-02-11T03:00:40.553Z,16.77
2023-02-11T03:04:40.591Z,18.77
2023-02-11T03:08:40.654Z,12.57
2023-02-11T03:12:40.602Z,18.7
2023-02-11T03:16:40.522Z,18.37
2023-02-11T03:20:40.525Z,15.33
2023-02-11T03:24:39.400Z,18.33
2023-02-11T03:28:40.367Z,18.3
2023-02-11T03:32:39.264Z,15.47
2023-02-11T03:36:40.291Z,14.83
2023-02-11T03:40:40.924Z,15.67
2023-02-11T03:44:40.178Z,18.1
2023-02-11T03:48:39.308Z,19.23
2023-02-11T03:52:39.900Z,17.47
2023-02-11T03:56:40.620Z,18.07
2023-02-11T04:00:40.797Z,18.9
2023-02-11T04:04:40.015Z,18.43
2023-02-11T04:08:40.443Z,19.07
2023-02-11T04:12:39.881Z,19.63
2023-02-11T04:16:39.818Z,19.13
2023-02-11T04:20:39.973Z,20.07
2023-02-11T04:24:40.752Z,19.37
2023-02-11T04:28:40.747Z,19.83
2023-02-11T04:32:40.306Z,18.8
2023-02-11T04:36:40.415Z,21.57
2023-02-11T04:40:40.552Z,17.77
2023-02-11T04:44:41.051Z,19.33
2023-02-11T04:48:40.684Z,21.13
2023-02-11T04:52:39.924Z,16.57
2023-02-11T04:56:40.517Z,19.33
2023-02-11T05:00:40.437Z,19.27
2023-02-11T05:04:41.238Z,18.43
2023-02-11T05:08:40.472Z,20.53
2023-02-11T05:12:39.774Z,21.97
2023-02-11T05:16:40.279Z,21.93
2023-02-11T05:20:41.237Z,16.97
2023-02-11T05:24:41.186Z,22.47
2023-02-11T05:28:40.543Z,16.67
2023-02-11T05:32:40.895Z,23.07
2023-02-11T05:36:40.231Z,19.6
2023-02-11T05:40:41.159Z,19.23
2023-02-11T05:44:40.623Z,24.23
2023-02-11T05:48:39.385Z,21.27
2023-02-11T05:52:39.954Z,24.8
2023-02-11T05:56:41.679Z,19
2023-02-11T06:00:40.602Z,23.13
2023-02-11T06:04:41.131Z,25.2
2023-02-11T06:08:40.544Z,23.77
2023-02-11T06:12:40.186Z,25.37
2023-02-11T06:16:40.337Z,22.77
2023-02-11T06:20:40.569Z,22.57
2023-02-11T06:24:59.768Z,25.1
2023-02-11T06:28:42.027Z,18.3
2023-02-11T06:32:45.443Z,21.17
2023-02-11T06:36:40.340Z,24.63
2023-02-11T06:40:40.498Z,22.67
2023-02-11T06:44:41.115Z,23.17
2023-02-11T06:48:41.646Z,19.67
2023-02-11T06:52:39.831Z,24.27
2023-02-11T06:56:40.412Z,24.5
2023-02-11T07:00:40.558Z,16.33
2023-02-11T07:04:40.500Z,22.4
2023-02-11T07:08:39.338Z,20.37
2023-02-11T07:12:41.015Z,16.37
2023-02-11T07:16:40.313Z,23.13
2023-02-11T07:20:41.061Z,21.7
2023-02-11T07:24:40.630Z,21.67
2023-02-11T07:28:40.586Z,17.07
2023-02-11T07:32:40.537Z,18.57
2023-02-11T07:36:40.297Z,20.17
2023-02-11T07:40:40.552Z,23.6
2023-02-11T07:44:40.562Z,24.63
2023-02-11T07:48:40.053Z,18.57
2023-02-11T07:52:40.974Z,25.9
2023-02-11T07:56:40.310Z,24.5
2023-02-11T08:00:41.222Z,24.93
2023-02-11T08:04:40.974Z,23.83
2023-02-11T08:08:39.634Z,18.47
2023-02-11T08:12:40.545Z,23.63
2023-02-11T08:16:40.435Z,24.27
2023-02-11T08:20:39.560Z,24.9
2023-02-11T08:24:40.528Z,24.37
2023-02-11T08:28:39.506Z,17.77
2023-02-11T08:32:40.616Z,21.3
2023-02-11T08:36:40.497Z,19.47
2023-02-11T08:40:40.500Z,23.33
2023-02-11T08:44:40.506Z,18.07
2023-02-11T08:48:40.367Z,15.93
2023-02-11T08:52:40.570Z,18.23
2023-02-11T08:56:40.515Z,20.4
2023-02-11T09:00:40.644Z,18.7
2023-02-11T09:04:40.573Z,20.4
2023-02-11T09:08:40.548Z,18.73
2023-02-11T09:12:40.556Z,17.63
2023-02-11T09:16:40.465Z,18.17
2023-02-11T09:20:40.545Z,19.17
2023-02-11T09:24:40.484Z,19.27
2023-02-11T09:28:40.040Z,15.77
2023-02-11T09:32:39.318Z,16.87
2023-02-11T09:36:40.409Z,17.3
2023-02-11T09:40:40.751Z,15.1
2023-02-11T09:44:40.536Z,19.43
2023-02-11T09:48:39.658Z,15.73
2023-02-11T09:52:40.542Z,16.83
2023-02-11T09:56:40.328Z,18.9
2023-02-11T10:00:40.970Z,17.73
2023-02-11T10:04:40.738Z,10.23
2023-02-11T10:08:40.581Z,18.27
2023-02-11T10:12:40.604Z,18.27
2023-02-11T10:16:40.727Z,16.7
2023-02-11T10:20:40.567Z,16.2
2023-02-11T10:24:40.614Z,17.27
2023-02-11T10:28:40.718Z,17.23
2023-02-11T10:32:40.429Z,17.95
2023-02-11T10:36:39.299Z,17.9
2023-02-11T10:40:40.797Z,17.37
2023-02-11T10:44:40.575Z,16.97
2023-02-11T10:48:40.567Z,15.9
2023-02-11T10:52:40.502Z,12.85
2023-02-11T10:56:40.567Z,14.37
2023-02-11T11:00:40.810Z,16.97
2023-02-11T11:04:40.518Z,16.67
2023-02-11T11:08:40.592Z,17.23
2023-02-11T11:12:42.232Z,16.3
2023-02-11T11:16:40.381Z,15.68
2023-02-11T11:20:40.599Z,16.58
2023-02-11T11:24:40.518Z,16.08
2023-02-11T11:28:40.952Z,13.15
2023-02-11T11:32:40.671Z,16.9
2023-02-11T11:36:40.986Z,16.95
2023-02-11T11:40:40.373Z,17.93
2023-02-11T11:44:40.533Z,15
2023-02-11T11:48:40.570Z,13.6
2023-02-11T11:52:40.784Z,15.07
2023-02-11T11:56:40.472Z,14.32
2023-02-11T12:00:40.840Z,12.03
2023-02-11T12:04:40.609Z,13.5
2023-02-11T12:08:40.703Z,16.03
2023-02-11T12:12:41.048Z,15.87
2023-02-11T12:16:40.532Z,15.23
2023-02-11T12:20:40.749Z,14.8
2023-02-11T12:24:39.920Z,17.93
2023-02-11T12:28:41.360Z,13.37
2023-02-11T12:32:40.592Z,13.88
2023-02-11T12:36:40.319Z,14.63
2023-02-11T12:40:41.164Z,13.17
2023-02-11T12:44:40.724Z,18.33
2023-02-11T12:48:40.684Z,17.55
2023-02-11T12:52:40.519Z,18.67
2023-02-11T12:56:40.448Z,14.63
2023-02-11T13:00:40.635Z,18.77
2023-02-11T13:04:40.526Z,17.33
2023-02-11T13:08:40.498Z,20.57
2023-02-11T13:12:40.573Z,17.23
2023-02-11T13:16:40.326Z,15.27
2023-02-11T13:20:40.624Z,17.6
2023-02-11T13:24:40.629Z,19.97
2023-02-11T13:28:40.579Z,17.9
2023-02-11T13:32:40.828Z,16.83
2023-02-11T13:36:41.292Z,20.73
2023-02-11T13:40:40.695Z,22.47
2023-02-11T13:44:40.536Z,24
2023-02-11T13:48:40.668Z,23.3
2023-02-11T13:52:40.550Z,22.4
2023-02-11T13:56:39.530Z,17.93
2023-02-11T14:00:40.730Z,22.17
2023-02-11T14:04:40.559Z,21.27
2023-02-11T14:08:40.733Z,25.1
2023-02-11T14:12:40.500Z,19.93
2023-02-11T14:16:40.562Z,25.2
2023-02-11T14:20:40.714Z,25.03
2023-02-11T14:24:40.506Z,25.4
2023-02-11T14:28:41.062Z,17.23
2023-02-11T14:32:41.189Z,23.93
2023-02-11T14:36:40.466Z,21.9
2023-02-11T14:40:40.602Z,21.9
2023-02-11T14:44:40.529Z,20.13
2023-02-11T14:48:40.581Z,19.9
2023-02-11T14:52:40.618Z,22.6
2023-02-11T14:56:39.752Z,17.9
2023-02-11T15:00:40.670Z,22.37
2023-02-11T15:04:40.909Z,18.87
2023-02-11T15:08:40.565Z,26.13
2023-02-11T15:12:40.975Z,24.73
2023-02-11T15:16:40.848Z,25.37
2023-02-11T15:20:41.041Z,26.67
2023-02-11T15:24:40.622Z,29.17
2023-02-11T15:28:40.529Z,26.2
2023-02-11T15:32:40.798Z,23.97
2023-02-11T15:36:39.584Z,25.17
2023-02-11T15:40:40.666Z,26.53
2023-02-11T15:44:40.460Z,28.37
2023-02-11T15:48:40.514Z,31.73
2023-02-11T15:52:40.770Z,25.67
2023-02-11T15:56:40.737Z,22.87
2023-02-11T16:00:40.596Z,21.77
2023-02-11T16:04:40.551Z,29
2023-02-11T16:08:40.570Z,28.5
2023-02-11T16:12:40.333Z,30.23
2023-02-11T16:16:40.612Z,26.77
2023-02-11T16:20:40.853Z,28.4
2023-02-11T16:24:40.673Z,24.37
2023-02-11T16:28:40.414Z,31.1
2023-02-11T16:32:40.348Z,28
2023-02-11T16:36:40.373Z,24.6
2023-02-11T16:40:40.464Z,26.77
2023-02-11T16:44:40.562Z,27.83
2023-02-11T16:48:40.509Z,29.6
2023-02-11T16:52:41.006Z,32.5
2023-02-11T16:56:40.659Z,30.3
2023-02-11T17:00:40.690Z,29.33
2023-02-11T17:04:40.719Z,25.83
2023-02-11T17:08:41.183Z,27.57
2023-02-11T17:12:40.880Z,27.57
2023-02-11T17:16:40.474Z,28.1
2023-02-11T17:20:40.512Z,28.47
2023-02-11T17:24:40.476Z,30
2023-02-11T17:28:40.560Z,26.43
2023-02-11T17:32:40.708Z,28.93
2023-02-11T17:36:40.567Z,26.6
2023-02-11T17:40:40.692Z,27.57
2023-02-11T17:44:40.428Z,23.87
2023-02-11T17:48:40.624Z,28.6
2023-02-11T17:52:40.943Z,26.97
2023-02-11T17:56:40.470Z,29.4
2023-02-11T18:00:40.834Z,30.2
2023-02-11T18:04:41.101Z,27.57
2023-02-11T18:08:40.498Z,28.67
2023-02-11T18:12:40.503Z,27.2
2023-02-11T18:16:40.452Z,25.6
2023-02-11T18:20:40.551Z,25.17
2023-02-11T18:24:40.561Z,27.87
2023-02-11T18:28:43.212Z,24.77
2023-02-11T18:32:40.629Z,25.73
2023-02-11T18:36:40.652Z,18.53
2023-02-11T18:40:40.740Z,26.63
2023-02-11T18:44:40.504Z,25
2023-02-11T18:48:40.538Z,25.65
2023-02-11T18:52:40.478Z,27.05
2023-02-11T18:56:40.341Z,22.2
2023-02-11T19:00:41.309Z,25.23
2023-02-11T19:04:40.672Z,24.6
2023-02-11T19:08:40.549Z,23.83
2023-02-11T19:12:40.575Z,28.12
2023-02-11T19:16:40.629Z,25.77
2023-02-11T19:20:40.585Z,27.07
2023-02-11T19:24:40.819Z,27.45
2023-02-11T19:28:40.698Z,26.98
2023-02-11T19:32:40.275Z,24.7
2023-02-11T19:36:40.707Z,25.6
2023-02-11T19:40:40.740Z,28.3
2023-02-11T19:44:40.717Z,24.5
2023-02-11T19:48:40.481Z,24.83
2023-02-11T19:52:40.566Z,24.9
2023-02-11T19:56:40.692Z,24.37
2023-02-11T20:00:40.810Z,23.17
2023-02-11T20:04:40.520Z,23.4
2023-02-11T20:08:40.866Z,20.93
2023-02-11T20:12:40.349Z,21.95
2023-02-11T20:16:48.749Z,16.7
2023-02-11T20:20:40.496Z,21.03
2023-02-11T20:24:40.622Z,20.67
2023-02-11T20:28:40.517Z,19.63
2023-02-11T20:32:40.812Z,23
2023-02-11T20:36:40.730Z,20.4
2023-02-11T20:40:40.703Z,20.92
2023-02-11T20:44:40.494Z,19.6
2023-02-11T20:48:40.560Z,18.27
2023-02-11T20:52:40.686Z,20.58
2023-02-11T20:56:40.155Z,19.67
2023-02-11T21:00:40.984Z,20.17
2023-02-11T21:04:40.740Z,20.5
2023-02-11T21:08:40.467Z,21.3
2023-02-11T21:12:41.233Z,19.73
2023-02-11T21:16:40.955Z,21.13
2023-02-11T21:20:40.539Z,19.83
2023-02-11T21:24:40.588Z,20.95
2023-02-11T21:28:41.132Z,21.3
2023-02-11T21:32:40.410Z,20.8
2023-02-11T21:36:40.519Z,19.7
2023-02-11T21:40:40.647Z,19.87
2023-02-11T21:44:40.274Z,19.8
2023-02-11T21:48:39.255Z,21
2023-02-11T21:52:40.594Z,20.53
2023-02-11T21:56:40.587Z,20.83
2023-02-11T22:00:40.628Z,18.05
2023-02-11T22:04:40.581Z,20.4
2023-02-11T22:08:40.804Z,18.9
2023-02-11T22:12:40.578Z,23.07
2023-02-11T22:16:40.683Z,20.17
2023-02-11T22:20:40.532Z,19.2
2023-02-11T22:24:40.833Z,17.03
2023-02-11T22:28:40.725Z,18.77
2023-02-11T22:32:40.288Z,18.47
2023-02-11T22:36:40.584Z,17.97
2023-02-11T22:40:40.573Z,15.7
2023-02-11T22:44:40.623Z,14.87
2023-02-11T22:48:40.703Z,18.1
2023-02-11T22:52:40.682Z,17.3
2023-02-11T22:56:40.607Z,16.2
2023-02-11T23:00:39.822Z,16.63
2023-02-11T23:04:40.479Z,16.2
2023-02-11T23:08:40.517Z,18.03
2023-02-11T23:12:40.650Z,16.17
2023-02-11T23:16:40.673Z,16.43
2023-02-11T23:20:40.621Z,17.17
2023-02-11T23:24:40.581Z,14.13
2023-02-11T23:28:40.558Z,16.77
2023-02-11T23:32:40.637Z,17.15
2023-02-11T23:36:40.935Z,15.05
2023-02-11T23:40:40.698Z,16.05
2023-02-11T23:44:40.544Z,16.58
2023-02-11T23:48:41.074Z,16.17
2023-02-11T23:52:41.192Z,17.97
2023-02-11T23:56:40.495Z,15.97
